createdAt,value
2019-05-20T00:01:04.369Z,100530
2019-05-20T00:03:04.122Z,100530
2019-05-20T00:05:04.560Z,100530
2019-05-20T00:07:03.695Z,100540
2019-05-20T00:09:04.941Z,100530
2019-05-20T00:11:03.150Z,100540
2019-05-20T00:13:03.235Z,100540
2019-05-20T00:15:05.643Z,100540
2019-05-20T00:17:02.699Z,100550
2019-05-20T00:19:02.365Z,100540
2019-05-20T00:21:02.241Z,100550
2019-05-20T00:23:01.987Z,100550
2019-05-20T00:25:01.748Z,100550
2019-05-20T00:27:01.515Z,100550
2019-05-20T00:29:01.467Z,100550
2019-05-20T00:31:01.191Z,100540
2019-05-20T00:33:01.007Z,100540
2019-05-20T00:35:00.978Z,100550
2019-05-20T00:37:00.556Z,100550
2019-05-20T00:39:02.304Z,100550
2019-05-20T00:41:00.088Z,100550
2019-05-20T00:42:59.855Z,100550
2019-05-20T00:45:00.659Z,100540
2019-05-20T00:46:59.589Z,100540
2019-05-20T00:48:59.427Z,100540
2019-05-20T00:50:59.029Z,100540
2019-05-20T00:52:58.830Z,100530
2019-05-20T00:54:58.882Z,100530
2019-05-20T00:56:58.599Z,100530
2019-05-20T00:58:58.394Z,100530
2019-05-20T01:00:58.114Z,100530
2019-05-20T01:02:57.948Z,100530
2019-05-20T01:04:57.757Z,100530
2019-05-20T01:06:57.584Z,100530
2019-05-20T01:08:57.297Z,100530
2019-05-20T01:10:57.124Z,100530
2019-05-20T01:12:56.580Z,100530
2019-05-20T01:14:59.687Z,100530
2019-05-20T01:16:57.377Z,100540
2019-05-20T01:18:56.275Z,100540
2019-05-20T01:20:57.036Z,100540
2019-05-20T01:22:55.727Z,100540
2019-05-20T01:24:55.583Z,100550
2019-05-20T01:26:56.497Z,100550
2019-05-20T01:28:55.177Z,100550
2019-05-20T01:30:54.935Z,100560
2019-05-20T01:32:55.799Z,100560
2019-05-20T01:34:54.495Z,100560
2019-05-20T01:36:54.305Z,100560
2019-05-20T01:38:54.931Z,100560
2019-05-20T01:40:54.007Z,100570
2019-05-20T01:42:53.466Z,100560
2019-05-20T01:44:53.335Z,100570
2019-05-20T01:46:53.490Z,100570
2019-05-20T01:48:53.044Z,100570
2019-05-20T01:50:52.729Z,100570
2019-05-20T01:52:52.986Z,100570
2019-05-20T01:54:52.470Z,100570
2019-05-20T01:56:52.161Z,100580
2019-05-20T01:58:51.876Z,100580
2019-05-20T02:00:51.793Z,100580
2019-05-20T02:02:51.689Z,100580
2019-05-20T02:04:51.512Z,100580
2019-05-20T02:06:51.375Z,100580
2019-05-20T02:08:51.107Z,100590
2019-05-20T02:10:50.939Z,100590
2019-05-20T02:12:50.619Z,100590
2019-05-20T02:14:51.121Z,100580
2019-05-20T02:16:50.402Z,100580
2019-05-20T02:18:50.954Z,100580
2019-05-20T02:20:49.796Z,100580
2019-05-20T02:22:49.843Z,100580
2019-05-20T02:24:49.348Z,100590
2019-05-20T02:26:49.152Z,100590
2019-05-20T02:28:49.095Z,100580
2019-05-20T02:30:49.495Z,100590
2019-05-20T02:32:48.672Z,100590
2019-05-20T02:34:48.522Z,100590
2019-05-20T02:36:48.330Z,100590
2019-05-20T02:38:48.081Z,100600
2019-05-20T02:40:47.934Z,100600
2019-05-20T02:42:47.873Z,100590
2019-05-20T02:44:47.450Z,100600
2019-05-20T02:46:47.608Z,100600
2019-05-20T02:48:47.174Z,100600
2019-05-20T02:50:46.919Z,100600
2019-05-20T02:52:46.726Z,100600
2019-05-20T02:54:46.566Z,100590
2019-05-20T02:56:46.443Z,100590
2019-05-20T02:58:46.177Z,100590
2019-05-20T03:00:46.298Z,100580
2019-05-20T03:02:45.797Z,100590
2019-05-20T03:04:45.587Z,100580
2019-05-20T03:06:45.397Z,100580
2019-05-20T03:08:45.731Z,100580
2019-05-20T03:10:45.203Z,100580
2019-05-20T03:12:44.771Z,100580
2019-05-20T03:14:44.692Z,100580
2019-05-20T03:16:44.464Z,100580
2019-05-20T03:18:44.255Z,100580
2019-05-20T03:20:44.205Z,100580
2019-05-20T03:22:44.130Z,100580
2019-05-20T03:24:44.414Z,100580
2019-05-20T03:26:43.598Z,100570
2019-05-20T03:28:43.515Z,100580
2019-05-20T03:30:43.974Z,100570
2019-05-20T03:32:43.002Z,100580
2019-05-20T03:34:50.606Z,100570
2019-05-20T03:36:42.761Z,100580
2019-05-20T03:38:42.530Z,100580
2019-05-20T03:40:42.515Z,100570
2019-05-20T03:42:42.322Z,100570
2019-05-20T03:44:42.102Z,100570
2019-05-20T03:46:42.214Z,100580
2019-05-20T03:48:42.037Z,100580
2019-05-20T03:50:41.617Z,100580
2019-05-20T03:52:41.317Z,100580
2019-05-20T03:54:41.243Z,100590
2019-05-20T03:56:41.507Z,100590
2019-05-20T03:58:40.945Z,100590
2019-05-20T04:00:43.333Z,100590
2019-05-20T04:02:40.949Z,100590
2019-05-20T04:04:40.383Z,100580
2019-05-20T04:06:41.240Z,100580
2019-05-20T04:08:40.106Z,100580
2019-05-20T04:10:40.222Z,100580
2019-05-20T04:12:39.869Z,100580
2019-05-20T04:14:39.975Z,100580
2019-05-20T04:16:39.451Z,100580
2019-05-20T04:18:40.381Z,100580
2019-05-20T04:20:39.833Z,100580
2019-05-20T04:22:39.155Z,100580
2019-05-20T04:24:38.861Z,100580
2019-05-20T04:26:38.756Z,100570
2019-05-20T04:28:38.764Z,100580
2019-05-20T04:30:39.525Z,100570
2019-05-20T04:32:38.263Z,100580
2019-05-20T04:34:38.134Z,100580
2019-05-20T04:36:38.041Z,100580
2019-05-20T04:38:37.935Z,100570
2019-05-20T04:40:37.816Z,100580
2019-05-20T04:42:37.513Z,100580
2019-05-20T04:44:37.377Z,100580
2019-05-20T04:46:41.128Z,100580
2019-05-20T04:48:37.231Z,100580
2019-05-20T04:50:37.261Z,100580
2019-05-20T04:52:36.913Z,100580
2019-05-20T04:54:36.836Z,100590
2019-05-20T04:56:36.864Z,100590
2019-05-20T04:58:36.497Z,100590
2019-05-20T05:02:37.363Z,100590
2019-05-20T05:04:36.153Z,100590
2019-05-20T05:06:36.837Z,100600
2019-05-20T05:08:35.896Z,100600
2019-05-20T05:10:36.953Z,100590
2019-05-20T05:12:35.802Z,100590
2019-05-20T05:14:35.610Z,100600
2019-05-20T05:16:35.713Z,100600
2019-05-20T05:18:35.377Z,100590
2019-05-20T05:20:35.361Z,100590
2019-05-20T05:22:35.115Z,100590
2019-05-20T05:24:34.907Z,100590
2019-05-20T05:26:34.862Z,100600
2019-05-20T05:28:34.597Z,100590
2019-05-20T05:30:35.144Z,100600
2019-05-20T05:32:34.510Z,100600
2019-05-20T05:34:34.273Z,100590
2019-05-20T05:36:34.086Z,100600
2019-05-20T05:38:34.703Z,100600
2019-05-20T05:40:34.239Z,100600
2019-05-20T05:42:34.054Z,100590
2019-05-20T05:44:33.911Z,100600
2019-05-20T05:46:37.465Z,100600
2019-05-20T05:48:33.877Z,100600
2019-05-20T05:50:34.629Z,100600
2019-05-20T05:52:33.439Z,100600
2019-05-20T05:54:33.615Z,100600
2019-05-20T05:56:33.180Z,100600
2019-05-20T05:58:33.087Z,100600
2019-05-20T06:00:33.834Z,100600
2019-05-20T06:02:33.037Z,100600
2019-05-20T06:04:32.781Z,100600
2019-05-20T06:06:32.829Z,100590
2019-05-20T06:08:32.662Z,100590
2019-05-20T06:10:35.837Z,100590
2019-05-20T06:12:32.457Z,100600
2019-05-20T06:14:32.415Z,100590
2019-05-20T06:16:36.324Z,100590
2019-05-20T06:18:32.125Z,100590
2019-05-20T06:20:32.137Z,100590
2019-05-20T06:22:32.223Z,100590
2019-05-20T06:24:31.841Z,100590
2019-05-20T06:26:31.659Z,100580
2019-05-20T06:28:31.890Z,100590
2019-05-20T06:30:43.004Z,100580
2019-05-20T06:32:31.742Z,100580
2019-05-20T06:34:31.284Z,100590
2019-05-20T06:36:31.320Z,100590
2019-05-20T06:38:31.647Z,100590
2019-05-20T06:40:31.173Z,100590
2019-05-20T06:42:30.974Z,100590
2019-05-20T06:44:30.899Z,100590
2019-05-20T06:46:30.931Z,100590
2019-05-20T06:48:30.765Z,100580
2019-05-20T06:50:30.675Z,100580
2019-05-20T06:52:35.837Z,100580
2019-05-20T06:54:30.463Z,100580
2019-05-20T06:56:30.316Z,100580
2019-05-20T06:58:30.196Z,100580
2019-05-20T07:00:33.966Z,100580
2019-05-20T07:02:30.072Z,100570
2019-05-20T07:04:30.308Z,100570
2019-05-20T07:06:44.928Z,100580
2019-05-20T07:08:30.055Z,100570
2019-05-20T07:10:29.845Z,100570
2019-05-20T07:12:40.625Z,100570
2019-05-20T07:14:29.795Z,100560
2019-05-20T07:16:29.505Z,100570
2019-05-20T07:18:30.431Z,100570
2019-05-20T07:20:29.909Z,100570
2019-05-20T07:22:29.417Z,100560
2019-05-20T07:24:29.201Z,100560
2019-05-20T07:26:29.284Z,100570
2019-05-20T07:28:30.295Z,100570
2019-05-20T07:30:29.200Z,100570
2019-05-20T07:32:30.194Z,100570
2019-05-20T07:34:28.880Z,100580
2019-05-20T07:36:28.739Z,100580
2019-05-20T07:38:28.703Z,100580
2019-05-20T07:40:30.761Z,100580
2019-05-20T07:42:28.375Z,100570
2019-05-20T07:44:28.478Z,100580
2019-05-20T07:46:28.636Z,100570
2019-05-20T07:48:28.775Z,100570
2019-05-20T07:50:28.803Z,100570
2019-05-20T07:52:28.153Z,100570
2019-05-20T07:54:29.068Z,100570
2019-05-20T07:56:34.348Z,100570
2019-05-20T07:58:33.568Z,100570
2019-05-20T08:00:28.075Z,100570
2019-05-20T08:02:28.504Z,100570
2019-05-20T08:04:27.543Z,100570
2019-05-20T08:06:27.575Z,100570
2019-05-20T08:08:27.652Z,100570
2019-05-20T08:10:27.556Z,100570
2019-05-20T08:12:27.351Z,100580
2019-05-20T08:14:27.327Z,100570
2019-05-20T08:16:27.278Z,100570
2019-05-20T08:18:26.988Z,100570
2019-05-20T08:20:27.042Z,100570
2019-05-20T08:22:26.964Z,100560
2019-05-20T08:24:26.849Z,100560
2019-05-20T08:26:26.885Z,100550
2019-05-20T08:28:27.071Z,100560
2019-05-20T08:30:32.769Z,100550
2019-05-20T08:32:27.970Z,100550
2019-05-20T08:34:26.523Z,100550
2019-05-20T08:36:26.566Z,100550
2019-05-20T08:38:26.350Z,100550
2019-05-20T08:40:26.384Z,100550
2019-05-20T08:42:26.466Z,100550
2019-05-20T08:44:26.227Z,100550
2019-05-20T08:46:26.157Z,100550
2019-05-20T08:48:26.323Z,100550
2019-05-20T08:50:26.210Z,100550
2019-05-20T08:52:25.981Z,100550
2019-05-20T08:54:26.252Z,100540
2019-05-20T08:56:27.183Z,100550
2019-05-20T08:58:26.117Z,100540
2019-05-20T09:00:26.236Z,100550
2019-05-20T09:02:26.258Z,100550
2019-05-20T09:04:25.813Z,100550
2019-05-20T09:06:25.929Z,100550
2019-05-20T09:08:25.709Z,100550
2019-05-20T09:10:25.670Z,100550
2019-05-20T09:12:25.708Z,100540
2019-05-20T09:14:25.564Z,100550
2019-05-20T09:16:25.469Z,100550
2019-05-20T09:18:25.545Z,100560
2019-05-20T09:20:25.597Z,100540
2019-05-20T09:22:25.363Z,100540
2019-05-20T09:24:25.348Z,100550
2019-05-20T09:26:25.415Z,100540
2019-05-20T09:28:25.344Z,100540
2019-05-20T09:32:25.660Z,100530
2019-05-20T09:34:25.590Z,100530
2019-05-20T09:36:26.018Z,100530
2019-05-20T09:38:25.015Z,100530
2019-05-20T09:40:36.936Z,100530
2019-05-20T09:42:25.832Z,100530
2019-05-20T09:44:25.034Z,100530
2019-05-20T09:46:25.125Z,100540
2019-05-20T09:48:25.539Z,100530
2019-05-20T09:50:25.004Z,100530
2019-05-20T09:52:25.167Z,100530
2019-05-20T09:54:24.850Z,100530
2019-05-20T09:56:27.694Z,100530
2019-05-20T09:58:24.966Z,100530
2019-05-20T10:00:25.388Z,100520
2019-05-20T10:02:35.392Z,100530
2019-05-20T10:04:24.723Z,100520
2019-05-20T10:06:24.894Z,100520
2019-05-20T10:08:36.946Z,100520
2019-05-20T10:10:24.985Z,100510
2019-05-20T10:12:44.240Z,100510
2019-05-20T10:14:24.932Z,100510
2019-05-20T10:16:24.907Z,100500
2019-05-20T10:18:36.522Z,100510
2019-05-20T10:20:25.026Z,100510
2019-05-20T10:22:24.785Z,100510
2019-05-20T10:24:24.501Z,100510
2019-05-20T10:26:24.774Z,100510
2019-05-20T10:28:24.851Z,100510
2019-05-20T10:30:25.230Z,100500
2019-05-20T10:32:24.711Z,100500
2019-05-20T10:34:24.847Z,100500
2019-05-20T10:36:24.740Z,100500
2019-05-20T10:38:24.586Z,100500
2019-05-20T10:40:24.994Z,100490
2019-05-20T10:42:24.670Z,100490
2019-05-20T10:44:24.694Z,100490
2019-05-20T10:46:24.976Z,100500
2019-05-20T10:48:24.895Z,100500
2019-05-20T10:50:24.913Z,100500
2019-05-20T10:52:25.301Z,100490
2019-05-20T10:54:24.917Z,100480
2019-05-20T10:56:24.942Z,100490
2019-05-20T10:58:26.726Z,100480
2019-05-20T11:00:25.482Z,100490
2019-05-20T11:02:24.862Z,100490
2019-05-20T11:04:24.858Z,100480
2019-05-20T11:06:25.113Z,100490
2019-05-20T11:08:24.880Z,100480
2019-05-20T11:10:26.001Z,100480
2019-05-20T11:12:25.706Z,100470
2019-05-20T11:14:25.094Z,100470
2019-05-20T11:16:24.950Z,100460
2019-05-20T11:18:25.047Z,100460
2019-05-20T11:20:25.065Z,100470
2019-05-20T11:22:25.057Z,100460
2019-05-20T11:24:25.082Z,100450
2019-05-20T11:26:24.993Z,100470
2019-05-20T11:28:25.157Z,100470
2019-05-20T11:30:25.309Z,100460
2019-05-20T11:32:25.018Z,100460
2019-05-20T11:34:25.067Z,100450
2019-05-20T11:36:25.203Z,100450
2019-05-20T11:38:25.067Z,100450
2019-05-20T11:40:25.051Z,100450
2019-05-20T11:42:25.094Z,100440
2019-05-20T11:44:25.634Z,100440
2019-05-20T11:46:25.184Z,100450
2019-05-20T11:48:25.077Z,100450
2019-05-20T11:50:25.233Z,100440
2019-05-20T11:52:25.443Z,100450
2019-05-20T11:54:25.173Z,100450
2019-05-20T11:56:25.352Z,100450
2019-05-20T11:58:25.285Z,100450
2019-05-20T12:00:26.189Z,100440
2019-05-20T12:04:25.376Z,100450
2019-05-20T12:06:25.479Z,100460
2019-05-20T12:08:25.696Z,100440
2019-05-20T12:10:25.803Z,100440
2019-05-20T12:12:25.903Z,100440
2019-05-20T12:14:25.940Z,100450
2019-05-20T12:16:26.046Z,100440
2019-05-20T12:18:26.158Z,100450
2019-05-20T12:20:26.353Z,100440
2019-05-20T12:22:28.153Z,100450
2019-05-20T12:24:26.957Z,100450
2019-05-20T12:26:27.251Z,100440
2019-05-20T12:28:27.855Z,100440
2019-05-20T12:30:27.757Z,100440
2019-05-20T12:32:28.750Z,100440
2019-05-20T12:34:28.175Z,100430
2019-05-20T12:36:28.518Z,100430
2019-05-20T12:38:29.176Z,100430
2019-05-20T12:40:29.613Z,100430
2019-05-20T12:42:29.148Z,100440
2019-05-20T12:44:29.513Z,100440
2019-05-20T12:46:29.829Z,100440
2019-05-20T12:48:30.045Z,100430
2019-05-20T12:50:30.605Z,100430
2019-05-20T12:52:30.714Z,100430
2019-05-20T12:54:30.899Z,100430
2019-05-20T12:56:31.361Z,100430
2019-05-20T12:58:31.436Z,100430
2019-05-20T13:00:31.818Z,100430
2019-05-20T13:02:32.222Z,100430
2019-05-20T13:04:32.576Z,100430
2019-05-20T13:06:32.716Z,100430
2019-05-20T13:08:33.226Z,100420
2019-05-20T13:10:33.377Z,100430
2019-05-20T13:12:33.596Z,100420
2019-05-20T13:14:34.363Z,100420
2019-05-20T13:16:34.816Z,100420
2019-05-20T13:18:34.744Z,100430
2019-05-20T13:20:36.262Z,100420
2019-05-20T13:22:36.601Z,100420
2019-05-20T13:24:36.115Z,100420
2019-05-20T13:26:36.333Z,100410
2019-05-20T13:28:36.597Z,100410
2019-05-20T13:30:37.119Z,100410
2019-05-20T13:32:37.398Z,100400
2019-05-20T13:34:37.412Z,100390
2019-05-20T13:36:37.906Z,100390
2019-05-20T13:38:38.335Z,100390
2019-05-20T13:40:46.278Z,100400
2019-05-20T13:42:39.973Z,100400
2019-05-20T13:44:38.920Z,100400
2019-05-20T13:46:39.366Z,100400
2019-05-20T13:48:39.331Z,100380
2019-05-20T13:50:39.761Z,100390
2019-05-20T13:52:39.713Z,100390
2019-05-20T13:54:40.041Z,100390
2019-05-20T13:56:40.425Z,100390
2019-05-20T13:58:40.590Z,100390
2019-05-20T14:00:40.793Z,100390
2019-05-20T14:02:41.055Z,100380
2019-05-20T14:04:41.207Z,100380
2019-05-20T14:06:41.592Z,100380
2019-05-20T14:08:41.798Z,100380
2019-05-20T14:10:42.209Z,100380
2019-05-20T14:12:41.938Z,100380
2019-05-20T14:14:42.459Z,100380
2019-05-20T14:16:42.545Z,100380
2019-05-20T14:18:42.557Z,100380
2019-05-20T14:20:44.003Z,100380
2019-05-20T14:22:43.117Z,100380
2019-05-20T14:24:43.354Z,100370
2019-05-20T14:26:44.173Z,100380
2019-05-20T14:28:44.300Z,100380
2019-05-20T14:30:44.782Z,100380
2019-05-20T14:32:44.624Z,100380
2019-05-20T14:34:45.215Z,100380
2019-05-20T14:36:45.213Z,100390
2019-05-20T14:38:45.498Z,100380
2019-05-20T14:40:48.348Z,100380
2019-05-20T14:42:46.166Z,100380
2019-05-20T14:44:46.350Z,100380
2019-05-20T14:46:46.994Z,100380
2019-05-20T14:48:47.173Z,100380
2019-05-20T14:50:47.398Z,100380
2019-05-20T14:52:47.564Z,100380
2019-05-20T14:54:48.267Z,100380
2019-05-20T14:56:48.520Z,100380
2019-05-20T14:58:49.895Z,100380
2019-05-20T15:00:49.222Z,100380
2019-05-20T15:02:49.851Z,100380
2019-05-20T15:04:49.862Z,100380
2019-05-20T15:06:50.105Z,100370
2019-05-20T15:08:50.264Z,100370
2019-05-20T15:10:50.916Z,100370
2019-05-20T15:12:51.936Z,100370
2019-05-20T15:14:51.358Z,100360
2019-05-20T15:16:52.918Z,100370
2019-05-20T15:18:51.907Z,100360
2019-05-20T15:20:52.125Z,100370
2019-05-20T15:22:52.345Z,100360
2019-05-20T15:24:52.563Z,100370
2019-05-20T15:26:52.928Z,100370
2019-05-20T15:28:53.290Z,100370
2019-05-20T15:30:53.571Z,100370
2019-05-20T15:32:54.891Z,100370
2019-05-20T15:34:54.010Z,100370
2019-05-20T15:36:54.344Z,100370
2019-05-20T15:38:54.362Z,100370
2019-05-20T15:40:55.058Z,100370
2019-05-20T15:42:54.845Z,100360
2019-05-20T15:44:55.185Z,100360
2019-05-20T15:46:55.509Z,100360
2019-05-20T15:48:55.877Z,100360
2019-05-20T15:50:56.052Z,100360
2019-05-20T15:52:56.103Z,100360
2019-05-20T15:54:56.411Z,100360
2019-05-20T15:56:56.827Z,100360
2019-05-20T15:58:57.625Z,100360
2019-05-20T16:00:57.470Z,100360
2019-05-20T16:02:57.335Z,100350
2019-05-20T16:04:57.810Z,100350
2019-05-20T16:07:00.332Z,100360
2019-05-20T16:08:58.447Z,100350
2019-05-20T16:10:58.794Z,100360
2019-05-20T16:12:58.904Z,100360
2019-05-20T16:14:59.169Z,100360
2019-05-20T16:16:59.932Z,100360
2019-05-20T16:18:59.699Z,100360
2019-05-20T16:21:00.051Z,100360
2019-05-20T16:23:00.411Z,100370
2019-05-20T16:25:00.457Z,100360
2019-05-20T16:27:00.615Z,100360
2019-05-20T16:29:03.940Z,100360
2019-05-20T16:31:01.321Z,100370
2019-05-20T16:33:01.573Z,100370
2019-05-20T16:35:02.734Z,100370
2019-05-20T16:37:02.814Z,100370
2019-05-20T16:39:04.316Z,100370
2019-05-20T16:41:02.471Z,100360
2019-05-20T16:43:02.722Z,100360
2019-05-20T16:45:02.969Z,100360
2019-05-20T16:47:02.707Z,100370
2019-05-20T16:49:02.883Z,100360
2019-05-20T16:51:03.056Z,100360
2019-05-20T16:53:03.265Z,100360
2019-05-20T16:55:03.536Z,100360
2019-05-20T16:57:03.396Z,100360
2019-05-20T16:59:03.512Z,100360
2019-05-20T17:01:03.525Z,100360
2019-05-20T17:03:03.865Z,100360
2019-05-20T17:05:06.239Z,100360
2019-05-20T17:07:03.767Z,100370
2019-05-20T17:09:04.934Z,100360
2019-05-20T17:11:03.894Z,100370
2019-05-20T17:13:03.901Z,100360
2019-05-20T17:15:04.275Z,100360
2019-05-20T17:17:04.937Z,100370
2019-05-20T17:19:03.888Z,100370
2019-05-20T17:21:03.818Z,100380
2019-05-20T17:23:04.044Z,100370
2019-05-20T17:25:04.463Z,100380
2019-05-20T17:27:03.939Z,100380
2019-05-20T17:29:04.058Z,100370
2019-05-20T17:31:04.126Z,100380
2019-05-20T17:33:04.107Z,100370
2019-05-20T17:35:07.096Z,100380
2019-05-20T17:37:05.243Z,100380
2019-05-20T17:39:05.375Z,100380
2019-05-20T17:41:04.319Z,100380
2019-05-20T17:43:04.536Z,100380
2019-05-20T17:45:04.574Z,100380
2019-05-20T17:47:04.246Z,100380
2019-05-20T17:49:03.857Z,100380
2019-05-20T17:51:03.931Z,100380
2019-05-20T17:53:04.212Z,100380
2019-05-20T17:55:04.386Z,100380
2019-05-20T17:57:03.865Z,100390
2019-05-20T17:59:04.794Z,100380
2019-05-20T18:01:14.749Z,100390
2019-05-20T18:03:03.584Z,100390
2019-05-20T18:05:03.876Z,100390
2019-05-20T18:07:03.560Z,100390
2019-05-20T18:09:05.993Z,100400
2019-05-20T18:11:03.689Z,100400
2019-05-20T18:13:03.492Z,100400
2019-05-20T18:15:03.751Z,100400
2019-05-20T18:17:03.622Z,100400
2019-05-20T18:19:03.344Z,100400
2019-05-20T18:21:03.292Z,100410
2019-05-20T18:23:03.303Z,100410
2019-05-20T18:25:03.333Z,100410
2019-05-20T18:27:03.178Z,100410
2019-05-20T18:29:03.241Z,100410
2019-05-20T18:31:03.284Z,100410
2019-05-20T18:33:02.967Z,100410
2019-05-20T18:35:03.110Z,100410
2019-05-20T18:37:02.998Z,100420
2019-05-20T18:39:05.635Z,100420
2019-05-20T18:41:02.985Z,100420
2019-05-20T18:43:03.273Z,100420
2019-05-20T18:45:02.852Z,100420
2019-05-20T18:47:02.686Z,100420
2019-05-20T18:49:03.086Z,100410
2019-05-20T18:51:02.383Z,100420
2019-05-20T18:53:02.390Z,100410
2019-05-20T18:55:02.878Z,100410
2019-05-20T18:57:02.131Z,100410
2019-05-20T18:59:03.043Z,100410
2019-05-20T19:01:02.255Z,100410
2019-05-20T19:03:02.148Z,100420
2019-05-20T19:05:01.900Z,100420
2019-05-20T19:07:01.807Z,100420
2019-05-20T19:09:04.525Z,100420
2019-05-20T19:11:01.670Z,100420
2019-05-20T19:13:01.569Z,100420
2019-05-20T19:15:01.550Z,100420
2019-05-20T19:17:01.531Z,100420
2019-05-20T19:19:01.602Z,100420
2019-05-20T19:21:02.659Z,100420
2019-05-20T19:23:01.293Z,100420
2019-05-20T19:25:02.419Z,100420
2019-05-20T19:27:01.034Z,100420
2019-05-20T19:29:00.929Z,100420
2019-05-20T19:31:01.089Z,100420
2019-05-20T19:33:00.935Z,100420
2019-05-20T19:35:00.670Z,100420
2019-05-20T19:37:00.892Z,100420
2019-05-20T19:39:00.634Z,100420
2019-05-20T19:41:00.868Z,100430
2019-05-20T19:43:00.692Z,100430
2019-05-20T19:45:00.254Z,100430
2019-05-20T19:47:00.250Z,100430
2019-05-20T19:49:00.056Z,100430
2019-05-20T19:51:00.059Z,100430
2019-05-20T19:52:59.940Z,100440
2019-05-20T19:54:59.949Z,100440
2019-05-20T19:57:00.296Z,100440
2019-05-20T19:59:00.621Z,100440
2019-05-20T20:01:00.145Z,100440
2019-05-20T20:02:59.523Z,100440
2019-05-20T20:04:59.525Z,100440
2019-05-20T20:06:59.543Z,100440
2019-05-20T20:08:59.334Z,100440
2019-05-20T20:11:00.094Z,100440
2019-05-20T20:12:59.785Z,100440
2019-05-20T20:14:59.052Z,100440
2019-05-20T20:16:58.951Z,100450
2019-05-20T20:18:58.966Z,100440
2019-05-20T20:20:58.910Z,100450
2019-05-20T20:22:58.592Z,100440
2019-05-20T20:24:58.684Z,100440
2019-05-20T20:26:59.066Z,100450
2019-05-20T20:28:58.556Z,100450
2019-05-20T20:30:58.374Z,100460
2019-05-20T20:32:58.308Z,100460
2019-05-20T20:34:58.277Z,100460
2019-05-20T20:36:58.324Z,100450
2019-05-20T20:38:58.079Z,100460
2019-05-20T20:40:57.993Z,100460
2019-05-20T20:42:57.811Z,100460
2019-05-20T20:44:58.777Z,100450
2019-05-20T20:46:57.867Z,100460
2019-05-20T20:48:57.467Z,100460
2019-05-20T20:50:57.286Z,100460
2019-05-20T20:52:57.463Z,100460
2019-05-20T20:54:57.297Z,100460
2019-05-20T20:58:57.131Z,100450
2019-05-20T21:00:57.165Z,100450
2019-05-20T21:02:56.764Z,100450
2019-05-20T21:04:56.661Z,100450
2019-05-20T21:06:57.472Z,100450
2019-05-20T21:08:56.450Z,100450
2019-05-20T21:10:56.602Z,100450
2019-05-20T21:12:56.400Z,100450
2019-05-20T21:14:56.111Z,100450
2019-05-20T21:16:55.863Z,100460
2019-05-20T21:18:55.692Z,100460
2019-05-20T21:20:55.844Z,100460
2019-05-20T21:22:55.528Z,100460
2019-05-20T21:24:55.373Z,100460
2019-05-20T21:26:55.471Z,100460
2019-05-20T21:28:55.169Z,100460
2019-05-20T21:30:55.166Z,100460
2019-05-20T21:33:08.288Z,100460
2019-05-20T21:34:54.808Z,100460
2019-05-20T21:36:54.612Z,100460
2019-05-20T21:38:54.647Z,100460
2019-05-20T21:40:54.448Z,100460
2019-05-20T21:42:54.467Z,100470
2019-05-20T21:44:54.178Z,100460
2019-05-20T21:46:53.967Z,100460
2019-05-20T21:48:54.535Z,100470
2019-05-20T21:50:54.018Z,100460
2019-05-20T21:52:53.879Z,100470
2019-05-20T21:54:53.583Z,100470
2019-05-20T21:56:53.605Z,100470
2019-05-20T21:58:54.435Z,100480
2019-05-20T22:00:54.498Z,100480
2019-05-20T22:02:53.309Z,100480
2019-05-20T22:04:52.986Z,100480
2019-05-20T22:06:52.936Z,100470
2019-05-20T22:08:52.870Z,100470
2019-05-20T22:10:52.629Z,100470
2019-05-20T22:12:52.620Z,100460
2019-05-20T22:14:52.309Z,100470
2019-05-20T22:16:52.281Z,100460
2019-05-20T22:18:52.775Z,100470
2019-05-20T22:20:51.964Z,100470
2019-05-20T22:22:51.767Z,100470
2019-05-20T22:24:51.708Z,100460
2019-05-20T22:26:51.468Z,100460
2019-05-20T22:28:52.140Z,100460
2019-05-20T22:30:51.518Z,100460
2019-05-20T22:32:51.082Z,100460
2019-05-20T22:34:53.579Z,100450
2019-05-20T22:36:51.147Z,100460
2019-05-20T22:38:50.692Z,100450
2019-05-20T22:40:50.634Z,100450
2019-05-20T22:42:50.416Z,100450
2019-05-20T22:44:51.464Z,100450
2019-05-20T22:46:50.172Z,100450
2019-05-20T22:48:58.589Z,100460
2019-05-20T22:50:50.216Z,100460
2019-05-20T22:52:50.427Z,100460
2019-05-20T22:54:49.709Z,100470
2019-05-20T22:56:49.412Z,100470
2019-05-20T22:58:49.319Z,100460
2019-05-20T23:00:57.988Z,100470
2019-05-20T23:02:48.980Z,100460
2019-05-20T23:04:49.062Z,100460
2019-05-20T23:06:49.213Z,100460
2019-05-20T23:08:48.628Z,100470
2019-05-20T23:10:48.476Z,100470
2019-05-20T23:12:48.300Z,100470
2019-05-20T23:14:48.172Z,100470
2019-05-20T23:16:48.033Z,100470
2019-05-20T23:18:47.833Z,100470
2019-05-20T23:20:48.983Z,100470
2019-05-20T23:22:47.508Z,100470
2019-05-20T23:24:47.374Z,100470
2019-05-20T23:26:47.382Z,100470
2019-05-20T23:28:47.193Z,100470
2019-05-20T23:30:47.028Z,100480
2019-05-20T23:32:46.740Z,100480
2019-05-20T23:34:46.635Z,100480
2019-05-20T23:36:46.323Z,100480
2019-05-20T23:38:46.562Z,100490
2019-05-20T23:40:46.169Z,100490
2019-05-20T23:42:45.984Z,100490
2019-05-20T23:44:46.690Z,100490
2019-05-20T23:46:45.752Z,100490
2019-05-20T23:48:45.462Z,100490
2019-05-20T23:50:45.552Z,100490
2019-05-20T23:52:45.202Z,100490
2019-05-20T23:54:45.086Z,100490
2019-05-20T23:56:44.919Z,100490
2019-05-20T23:58:44.720Z,100490
